Time;durP1;ratioP1;P1;durP2;ratioP2;P2;SDS_P1;SDS_P2;PMS_P1;PMS_P2;Temp;Humidity;BMP_temperature;BMP_pressure;BME280_temperature;BME280_humidity;BME280_pressure;Samples;Min_cycle;Max_cycle;Signal;HPM_P1;HPM_P2
2022/05/20 00:02:16;;;;;;;11.75;4.35;;;;;;;;;;6250201;22;20167;-91
2022/05/20 00:05:24;;;;;;;9.63;4.93;;;;;;;;;;6251004;23;20157;-92
2022/05/20 00:08:31;;;;;;;11.80;5.45;;;;;;;;;;6251458;22;20213;-92
2022/05/20 00:11:40;;;;;;;7.47;4.18;;;;;;;;;;6251299;23;20161;-92
2022/05/20 00:14:46;;;;;;;9.35;4.03;;;;;;;;;;6249316;22;20190;-92
2022/05/20 00:17:53;;;;;;;7.72;4.28;;;;;;;;;;6250650;22;20169;-92
2022/05/20 00:52:50;;;;;;;7.35;4.25;;;;;;;;;;6198179;23;20215;-90
2022/05/20 00:55:56;;;;;;;9.93;4.80;;;;;;;;;;6215909;23;20171;-91
2022/05/20 00:59:01;;;;;;;10.20;5.18;;;;;;;;;;6218700;23;20147;-93
2022/05/20 01:02:09;;;;;;;11.32;5.05;;;;;;;;;;6217728;23;20162;-93
2022/05/20 01:05:18;;;;;;;11.10;5.07;;;;;;;;;;6235948;23;20171;-90
2022/05/20 01:08:26;;;;;;;10.48;4.60;;;;;;;;;;6234225;22;20512;-92
2022/05/20 01:11:33;;;;;;;8.48;4.55;;;;;;;;;;6233500;23;20190;-93
2022/05/20 01:14:39;;;;;;;8.77;4.55;;;;;;;;;;6235413;23;20152;-91
2022/05/20 01:17:45;;;;;;;7.55;4.03;;;;;;;;;;6233770;23;20167;-92
2022/05/20 01:20:52;;;;;;;8.95;4.30;;;;;;;;;;6217585;23;20171;-93
2022/05/20 01:24:02;;;;;;;10.07;4.18;;;;;;;;;;6235205;23;20239;-91
2022/05/20 01:27:07;;;;;;;8.27;4.38;;;;;;;;;;6234464;23;20242;-92
2022/05/20 01:33:34;;;;;;;8.68;4.50;;;;;;;;;;6234687;23;20174;-91
2022/05/20 01:36:39;;;;;;;11.30;4.45;;;;;;;;;;6233627;23;20167;-92
2022/05/20 01:39:46;;;;;;;10.20;4.20;;;;;;;;;;6217374;23;20175;-92
2022/05/20 01:47:14;;;;;;;8.35;4.38;;;;;;;;;;6234106;23;20190;-93
2022/05/20 01:50:22;;;;;;;6.68;4.50;;;;;;;;;;6233405;23;20167;-92
2022/05/20 01:53:32;;;;;;;11.75;5.60;;;;;;;;;;6233089;23;20183;-91
2022/05/20 01:56:42;;;;;;;9.43;4.47;;;;;;;;;;6214585;23;20171;-91
2022/05/20 01:59:51;;;;;;;10.27;5.53;;;;;;;;;;6214424;23;20199;-92
2022/05/20 02:02:58;;;;;;;9.52;5.35;;;;;;;;;;6214575;23;20499;-92
2022/05/20 02:06:06;;;;;;;9.15;4.72;;;;;;;;;;6232272;23;20611;-90
2022/05/20 02:09:14;;;;;;;7.78;4.80;;;;;;;;;;6231448;23;20178;-91
2022/05/20 02:12:22;;;;;;;11.77;6.03;;;;;;;;;;6230963;23;20283;-92
2022/05/20 02:15:30;;;;;;;9.82;5.22;;;;;;;;;;6231875;23;20246;-92
2022/05/20 02:18:37;;;;;;;8.43;5.50;;;;;;;;;;6231345;23;20619;-90
2022/05/20 02:21:46;;;;;;;12.35;7.00;;;;;;;;;;6232342;23;20210;-90
2022/05/20 02:24:52;;;;;;;18.42;7.80;;;;;;;;;;6230677;23;20199;-92
2022/05/20 02:27:59;;;;;;;13.07;8.30;;;;;;;;;;6229390;23;20234;-92
2022/05/20 02:31:06;;;;;;;14.30;7.68;;;;;;;;;;6214693;23;20167;-91
2022/05/20 02:34:12;;;;;;;12.65;7.30;;;;;;;;;;6232264;23;20166;-92
2022/05/20 02:37:22;;;;;;;16.90;8.35;;;;;;;;;;6232601;23;20210;-91
2022/05/20 02:44:51;;;;;;;14.23;8.00;;;;;;;;;;6233295;23;20218;-91
2022/05/20 02:47:56;;;;;;;15.18;7.35;;;;;;;;;;6234159;23;20195;-89
2022/05/20 02:51:05;;;;;;;16.67;8.30;;;;;;;;;;6216177;23;20167;-91
2022/05/20 02:54:11;;;;;;;14.50;7.43;;;;;;;;;;6232472;23;20167;-92
2022/05/20 02:57:16;;;;;;;15.70;7.30;;;;;;;;;;6231413;23;20167;-91
2022/05/20 03:07:10;;;;;;;14.48;8.48;;;;;;;;;;6230288;23;20220;-91
2022/05/20 03:10:15;;;;;;;10.02;7.15;;;;;;;;;;6230943;23;20167;-91
2022/05/20 03:13:21;;;;;;;14.18;7.78;;;;;;;;;;6230413;23;20166;-92
2022/05/20 03:16:27;;;;;;;21.98;8.70;;;;;;;;;;6215454;23;20171;-90
2022/05/20 03:19:33;;;;;;;14.23;7.80;;;;;;;;;;6234507;23;20248;-91
2022/05/20 03:22:39;;;;;;;13.80;7.47;;;;;;;;;;6234624;23;20189;-91
2022/05/20 03:25:44;;;;;;;18.45;8.35;;;;;;;;;;6237002;23;20171;-91
2022/05/20 03:28:50;;;;;;;13.40;7.88;;;;;;;;;;6217822;23;20517;-92
2022/05/20 03:31:57;;;;;;;12.02;7.45;;;;;;;;;;6234042;23;20167;-91
2022/05/20 03:35:02;;;;;;;12.75;7.28;;;;;;;;;;6217091;23;20503;-92
2022/05/20 03:38:08;;;;;;;14.10;6.88;;;;;;;;;;6236528;23;20251;-92
2022/05/20 03:41:14;;;;;;;12.48;7.18;;;;;;;;;;6235881;23;20186;-94
2022/05/20 03:44:25;;;;;;;13.95;6.78;;;;;;;;;;6234653;23;20163;-92
2022/05/20 03:47:33;;;;;;;15.63;7.20;;;;;;;;;;6217499;23;20164;-91
2022/05/20 03:50:38;;;;;;;9.60;7.03;;;;;;;;;;6237285;23;20183;-91
2022/05/20 03:53:44;;;;;;;11.93;7.13;;;;;;;;;;6217944;23;20194;-92
2022/05/20 03:56:50;;;;;;;10.75;7.03;;;;;;;;;;6235813;23;20151;-93
2022/05/20 03:59:55;;;;;;;16.08;6.90;;;;;;;;;;6234149;23;20171;-92
2022/05/20 04:03:14;;;;;;;13.88;7.97;;;;;;;;;;6235681;23;20182;-90
2022/05/20 04:06:22;;;;;;;16.55;7.15;;;;;;;;;;6236020;23;20172;-92
2022/05/20 04:09:27;;;;;;;12.48;5.95;;;;;;;;;;6233455;23;20522;-91
2022/05/20 04:12:34;;;;;;;10.40;6.07;;;;;;;;;;6216607;23;20170;-91
2022/05/20 04:15:40;;;;;;;14.60;6.20;;;;;;;;;;6233610;23;20234;-92
2022/05/20 04:19:21;;;;;;;10.15;6.10;;;;;;;;;;6234282;23;20211;-92
2022/05/20 04:22:29;;;;;;;10.35;6.65;;;;;;;;;;6233465;23;20233;-92
2022/05/20 04:25:35;;;;;;;9.88;6.38;;;;;;;;;;6233957;23;20182;-92
2022/05/20 04:28:40;;;;;;;14.85;7.07;;;;;;;;;;6233828;23;20195;-91
2022/05/20 04:31:47;;;;;;;10.02;6.20;;;;;;;;;;6216505;23;20215;-92
2022/05/20 04:34:53;;;;;;;12.57;6.70;;;;;;;;;;6215498;23;20171;-92
2022/05/20 04:38:02;;;;;;;14.93;7.13;;;;;;;;;;6215935;23;20167;-92
2022/05/20 04:47:53;;;;;;;11.73;6.18;;;;;;;;;;6232733;23;20175;-92
2022/05/20 04:51:02;;;;;;;11.18;6.90;;;;;;;;;;6215767;23;20195;-90
2022/05/20 04:57:34;;;;;;;11.20;5.70;;;;;;;;;;6231826;23;20172;-91
2022/05/20 05:00:39;;;;;;;12.88;6.30;;;;;;;;;;6229983;23;20167;-90
2022/05/20 05:03:45;;;;;;;10.98;6.43;;;;;;;;;;6233852;23;20204;-93
2022/05/20 05:06:54;;;;;;;12.00;6.57;;;;;;;;;;6217055;23;20150;-93
2022/05/20 05:10:02;;;;;;;14.02;6.82;;;;;;;;;;6233458;23;20246;-93
2022/05/20 05:13:08;;;;;;;14.52;6.30;;;;;;;;;;6233177;23;20171;-91
2022/05/20 05:16:13;;;;;;;13.23;6.97;;;;;;;;;;6216855;23;20166;-93
2022/05/20 05:19:19;;;;;;;18.17;7.80;;;;;;;;;;6215305;23;20163;-90
2022/05/20 05:22:25;;;;;;;13.68;7.47;;;;;;;;;;6233955;23;20147;-92
2022/05/20 05:25:33;;;;;;;14.32;7.97;;;;;;;;;;6216233;23;20166;-92
2022/05/20 05:28:39;;;;;;;21.67;8.10;;;;;;;;;;6235010;23;20227;-91
2022/05/20 05:31:44;;;;;;;14.20;8.00;;;;;;;;;;6231693;23;20214;-91
2022/05/20 05:34:49;;;;;;;9.98;6.43;;;;;;;;;;6234642;23;20227;-93
2022/05/20 05:37:55;;;;;;;13.65;6.82;;;;;;;;;;6235880;23;20163;-92
2022/05/20 05:41:02;;;;;;;10.48;6.57;;;;;;;;;;6236034;23;20191;-92
2022/05/20 05:44:07;;;;;;;11.23;6.47;;;;;;;;;;6215377;23;20242;-91
2022/05/20 05:47:13;;;;;;;15.35;7.88;;;;;;;;;;6216128;23;20162;-91
2022/05/20 05:50:20;;;;;;;11.13;6.93;;;;;;;;;;6216389;23;20171;-92
2022/05/20 05:53:26;;;;;;;19.00;7.25;;;;;;;;;;6233389;23;20187;-91
2022/05/20 05:56:36;;;;;;;9.43;6.05;;;;;;;;;;6234769;23;20164;-91
2022/05/20 05:59:42;;;;;;;11.35;6.85;;;;;;;;;;6215524;23;20183;-91
2022/05/20 06:02:47;;;;;;;8.88;5.78;;;;;;;;;;6233881;23;20163;-92
2022/05/20 06:05:56;;;;;;;9.32;6.25;;;;;;;;;;6219632;23;20164;-92
2022/05/20 06:09:05;;;;;;;11.80;6.88;;;;;;;;;;6216978;23;20273;-90
2022/05/20 06:12:14;;;;;;;17.05;7.13;;;;;;;;;;6236140;23;20162;-92
2022/05/20 06:15:22;;;;;;;12.10;6.75;;;;;;;;;;6233298;23;20150;-92
2022/05/20 06:18:28;;;;;;;10.32;6.80;;;;;;;;;;6215734;23;20175;-91
2022/05/20 06:21:35;;;;;;;14.70;7.28;;;;;;;;;;6235475;23;20167;-92
2022/05/20 06:24:40;;;;;;;12.13;7.88;;;;;;;;;;6233315;23;20162;-94
2022/05/20 06:27:48;;;;;;;13.07;7.93;;;;;;;;;;6234140;23;20599;-92
2022/05/20 06:30:53;;;;;;;13.32;6.95;;;;;;;;;;6234759;23;20183;-92
2022/05/20 06:33:59;;;;;;;11.35;7.05;;;;;;;;;;6233098;23;20206;-92
2022/05/20 15:00:05;;;;;;;4.18;2.00;;;;;;;;;;6143696;23;20220;-90
2022/05/20 15:03:11;;;;;;;5.97;2.10;;;;;;;;;;6123190;23;20165;-92
2022/05/20 15:06:25;;;;;;;4.60;2.20;;;;;;;;;;6144424;23;20164;-90
2022/05/20 15:09:33;;;;;;;4.80;2.05;;;;;;;;;;6123114;23;20244;-92
2022/05/20 15:12:38;;;;;;;3.28;2.00;;;;;;;;;;6124502;23;20173;-91
2022/05/20 15:15:44;;;;;;;6.63;2.50;;;;;;;;;;6126022;23;20189;-91
2022/05/20 15:18:55;;;;;;;5.18;2.40;;;;;;;;;;6124915;23;20176;-91
2022/05/20 15:22:00;;;;;;;8.52;2.50;;;;;;;;;;6141939;23;20192;-92
2022/05/20 15:25:18;;;;;;;3.42;2.53;;;;;;;;;;6125814;23;20173;-94
2022/05/20 15:35:14;;;;;;;8.20;2.70;;;;;;;;;;6131860;23;20226;-92
2022/05/20 15:38:23;;;;;;;8.23;2.55;;;;;;;;;;6146820;23;20169;-91
2022/05/20 15:41:28;;;;;;;4.70;2.40;;;;;;;;;;6130143;23;20172;-93
2022/05/20 15:44:34;;;;;;;10.07;2.50;;;;;;;;;;6128456;23;20205;-92
2022/05/20 15:47:41;;;;;;;4.65;2.13;;;;;;;;;;6127880;23;20220;-93
2022/05/20 15:50:46;;;;;;;3.53;2.10;;;;;;;;;;6148058;23;20205;-91
2022/05/20 15:53:52;;;;;;;3.20;1.88;;;;;;;;;;6128547;23;20192;-92
2022/05/20 15:56:58;;;;;;;8.02;2.70;;;;;;;;;;6128821;23;20622;-91
2022/05/20 16:00:05;;;;;;;3.25;2.10;;;;;;;;;;6126419;23;20218;-88
2022/05/20 16:03:12;;;;;;;9.70;2.50;;;;;;;;;;6144267;23;20156;-91
2022/05/20 16:06:20;;;;;;;6.10;2.53;;;;;;;;;;6128004;23;20206;-94
2022/05/20 16:09:25;;;;;;;5.53;2.30;;;;;;;;;;6125290;23;20245;-93
2022/05/20 16:12:31;;;;;;;7.70;2.47;;;;;;;;;;6143488;23;20613;-92
2022/05/20 16:15:36;;;;;;;9.40;2.60;;;;;;;;;;6124194;23;20169;-93
2022/05/20 16:18:43;;;;;;;6.13;2.42;;;;;;;;;;6125834;23;20152;-92
2022/05/20 16:21:50;;;;;;;5.63;2.58;;;;;;;;;;6123984;23;20345;-91
2022/05/20 16:24:55;;;;;;;10.48;3.33;;;;;;;;;;6140616;23;20239;-92
2022/05/20 16:28:00;;;;;;;6.22;2.67;;;;;;;;;;6122393;23;20173;-92
2022/05/20 16:31:06;;;;;;;7.13;2.70;;;;;;;;;;6122310;23;20663;-92
2022/05/20 16:34:14;;;;;;;3.90;2.38;;;;;;;;;;6119814;23;20169;-93
2022/05/20 16:37:19;;;;;;;9.27;2.92;;;;;;;;;;6125700;23;20168;-92
2022/05/20 16:40:29;;;;;;;4.72;2.53;;;;;;;;;;6127006;23;20167;-92
2022/05/20 16:43:35;;;;;;;4.50;2.50;;;;;;;;;;6125271;23;20257;-92
2022/05/20 16:46:40;;;;;;;4.30;2.25;;;;;;;;;;6127165;23;20504;-92
2022/05/20 16:49:49;;;;;;;9.23;2.90;;;;;;;;;;6108676;23;20192;-92
2022/05/20 17:03:01;;;;;;;7.97;2.80;;;;;;;;;;6125538;23;20624;-92
2022/05/20 17:06:08;;;;;;;4.47;2.75;;;;;;;;;;6125114;23;20176;-92
2022/05/20 17:09:14;;;;;;;6.85;3.25;;;;;;;;;;6123259;23;20180;-90
2022/05/20 17:12:20;;;;;;;11.32;2.97;;;;;;;;;;6121993;23;20290;-90
2022/05/20 17:15:25;;;;;;;14.15;3.85;;;;;;;;;;6120024;23;20172;-90
2022/05/20 17:18:32;;;;;;;8.00;3.22;;;;;;;;;;6120667;23;20166;-92
2022/05/20 17:25:05;;;;;;;7.82;5.20;;;;;;;;;;6122748;23;20177;-90
2022/05/20 17:28:12;;;;;;;15.32;4.30;;;;;;;;;;6122414;23;20181;-92
2022/05/20 17:31:17;;;;;;;8.40;3.45;;;;;;;;;;6139584;23;20200;-93
2022/05/20 17:34:22;;;;;;;7.45;3.78;;;;;;;;;;6124233;23;20164;-93
2022/05/20 17:37:29;;;;;;;6.78;3.60;;;;;;;;;;6140547;23;20161;-94
2022/05/20 17:40:35;;;;;;;13.27;3.75;;;;;;;;;;6139462;23;20165;-90
2022/05/20 17:43:40;;;;;;;7.93;3.42;;;;;;;;;;6122418;23;20181;-91
2022/05/20 17:46:49;;;;;;;39.53;14.05;;;;;;;;;;6139176;23;20209;-93
2022/05/20 17:49:54;;;;;;;15.15;4.35;;;;;;;;;;6122713;23;20205;-90
2022/05/20 17:53:01;;;;;;;10.93;4.45;;;;;;;;;;6140445;23;20257;-91
2022/05/20 17:56:08;;;;;;;11.13;4.13;;;;;;;;;;6121766;23;20217;-92
2022/05/20 17:59:13;;;;;;;6.47;3.67;;;;;;;;;;6122923;23;20173;-92
2022/05/20 18:02:18;;;;;;;11.77;4.47;;;;;;;;;;6126890;23;20249;-92
2022/05/20 18:05:26;;;;;;;13.55;5.10;;;;;;;;;;6123792;23;20158;-92
2022/05/20 18:08:33;;;;;;;8.30;3.72;;;;;;;;;;6122917;23;20168;-92
2022/05/20 18:11:38;;;;;;;12.32;4.15;;;;;;;;;;6123541;23;20214;-92
2022/05/20 18:14:44;;;;;;;6.18;3.70;;;;;;;;;;6122789;23;20169;-92
2022/05/20 18:17:53;;;;;;;10.25;4.00;;;;;;;;;;6120533;23;20241;-91
2022/05/20 18:21:01;;;;;;;6.95;3.72;;;;;;;;;;6120888;23;20177;-89
2022/05/20 23:05:45;;;;;;;16.35;6.68;;;;;;;;;;6196518;23;20215;-90
2022/05/20 23:08:50;;;;;;;12.63;6.43;;;;;;;;;;6222121;23;20413;-88
2022/05/20 23:11:59;;;;;;;15.80;6.90;;;;;;;;;;6204240;23;20519;-90
2022/05/20 23:15:04;;;;;;;14.38;6.00;;;;;;;;;;6219918;23;20175;-90
2022/05/20 23:18:10;;;;;;;17.70;6.40;;;;;;;;;;6202978;23;20407;-90
2022/05/20 23:21:18;;;;;;;13.48;6.45;;;;;;;;;;6203463;23;20518;-90
2022/05/20 23:24:31;;;;;;;11.70;6.60;;;;;;;;;;6220947;23;20182;-89
2022/05/20 23:27:47;;;;;;;17.52;6.40;;;;;;;;;;6220999;23;20172;-89
2022/05/20 23:30:55;;;;;;;16.30;6.72;;;;;;;;;;6221876;23;20554;-89
2022/05/20 23:34:02;;;;;;;16.10;7.05;;;;;;;;;;6202799;23;20183;-88
2022/05/20 23:37:10;;;;;;;10.68;6.68;;;;;;;;;;6220635;23;20183;-89
2022/05/20 23:40:15;;;;;;;10.38;6.22;;;;;;;;;;6202817;23;20179;-89
2022/05/20 23:43:21;;;;;;;21.02;7.13;;;;;;;;;;6220187;23;20286;-89
2022/05/20 23:46:26;;;;;;;17.65;6.85;;;;;;;;;;6219691;23;20217;-89
2022/05/20 23:49:32;;;;;;;14.77;7.75;;;;;;;;;;6219487;23;20263;-89
2022/05/20 23:52:39;;;;;;;12.07;6.78;;;;;;;;;;6221455;23;20187;-88
2022/05/20 23:59:06;;;;;;;17.92;6.95;;;;;;;;;;6175923;23;20518;-89
